Time;durP1;ratioP1;P1;durP2;ratioP2;P2;SDS_P1;SDS_P2;PMS_P1;PMS_P2;Temp;Humidity;BMP_temperature;BMP_pressure;BME280_temperature;BME280_humidity;BME280_pressure;Samples;Min_cycle;Max_cycle;Signal;HPM_P1;HPM_P2
2022/06/11 00:00:56;;;;;;;1999.90;999.90;;;15.90;99.90;;;;;;4948987;29;20031;-75
2022/06/11 00:03:22;;;;;;;1999.90;999.90;;;15.90;99.90;;;;;;4954682;29;20034;-81
2022/06/11 00:05:49;;;;;;;1999.90;999.90;;;15.80;99.90;;;;;;4937523;29;20035;-77
2022/06/11 00:08:16;;;;;;;1999.90;999.90;;;15.80;99.90;;;;;;4936047;29;20024;-82
2022/06/11 00:10:43;;;;;;;1999.90;999.90;;;15.80;99.90;;;;;;4953477;29;20028;-81
2022/06/11 00:13:08;;;;;;;1999.90;999.90;;;15.70;99.90;;;;;;4949796;29;20031;-82
2022/06/11 00:15:34;;;;;;;1999.90;999.90;;;15.70;99.90;;;;;;4953797;29;20031;-75
2022/06/11 00:18:00;;;;;;;1999.90;999.90;;;15.70;99.90;;;;;;4954502;29;20402;-83
2022/06/11 00:20:27;;;;;;;1999.90;999.90;;;15.60;99.90;;;;;;4954566;29;20030;-82
2022/06/11 00:22:53;;;;;;;1999.90;999.90;;;15.60;99.90;;;;;;4955702;28;20041;-75
2022/06/11 00:25:19;;;;;;;1999.90;999.90;;;15.60;99.90;;;;;;4941135;29;20557;-75
2022/06/11 00:27:47;;;;;;;1999.90;999.90;;;15.60;99.90;;;;;;4958440;29;20517;-75
2022/06/11 00:30:14;;;;;;;1999.90;999.90;;;15.50;99.90;;;;;;4967197;28;20113;-75
2022/06/11 00:32:40;;;;;;;1999.90;999.90;;;15.50;99.90;;;;;;4960147;28;20039;-81
2022/06/11 00:35:09;;;;;;;1999.90;999.90;;;15.50;99.90;;;;;;4966370;28;20086;-75
2022/06/11 00:37:35;;;;;;;1999.90;999.90;;;15.40;99.90;;;;;;4942646;28;20458;-81
2022/06/11 00:40:02;;;;;;;1999.90;999.90;;;15.40;99.90;;;;;;4967687;28;20019;-82
2022/06/11 00:42:32;;;;;;;1999.90;999.90;;;15.40;99.90;;;;;;4957932;29;20065;-75
2022/06/11 00:45:19;;;;;;;1999.90;999.90;;;15.40;99.90;;;;;;4957519;29;20119;-75
2022/06/11 00:47:50;;;;;;;1999.90;999.90;;;15.30;99.90;;;;;;4968035;28;20031;-75
2022/06/11 00:50:27;;;;;;;1999.90;999.90;;;15.30;99.90;;;;;;4957783;29;20114;-75
2022/06/11 00:52:56;;;;;;;1999.90;999.90;;;15.30;99.90;;;;;;4948615;28;20131;-81
2022/06/11 00:55:36;;;;;;;1999.90;999.90;;;15.20;99.90;;;;;;4959492;28;20034;-81
2022/06/11 00:58:12;;;;;;;1999.90;999.90;;;15.20;99.90;;;;;;4971494;28;20016;-75
2022/06/11 01:00:42;;;;;;;1999.90;999.90;;;15.20;99.90;;;;;;4975480;28;20106;-81
2022/06/11 01:03:10;;;;;;;1999.90;999.90;;;15.20;99.90;;;;;;4980334;28;20114;-82
2022/06/11 01:05:39;;;;;;;1999.90;999.90;;;15.10;99.90;;;;;;4976441;28;20058;-77
2022/06/11 01:08:29;;;;;;;1999.90;999.90;;;15.20;99.90;;;;;;4976511;28;20026;-82
2022/06/11 01:11:14;;;;;;;1999.90;999.90;;;15.10;99.90;;;;;;4962453;28;20081;-80
2022/06/11 01:14:02;;;;;;;1999.90;999.90;;;15.10;99.90;;;;;;4939613;29;20041;-75
2022/06/11 01:16:38;;;;;;;1999.90;999.90;;;15.10;99.90;;;;;;4956600;29;20089;-81
2022/06/11 01:19:04;;;;;;;1999.90;999.90;;;15.10;99.90;;;;;;4957446;29;20024;-75
2022/06/11 01:21:51;;;;;;;1999.90;999.90;;;15.10;99.90;;;;;;4957162;29;20163;-82
2022/06/11 01:24:40;;;;;;;1999.90;999.90;;;15.00;99.90;;;;;;4957436;29;20030;-82
2022/06/11 01:27:33;;;;;;;1999.90;999.90;;;15.00;99.90;;;;;;4957077;29;20031;-81
2022/06/11 01:30:14;;;;;;;1999.90;999.90;;;15.00;99.90;;;;;;4956293;29;20023;-75
2022/06/11 01:32:40;;;;;;;1999.90;999.90;;;15.00;99.90;;;;;;4957258;29;20346;-82
2022/06/11 01:35:54;;;;;;;1999.90;999.90;;;14.90;99.90;;;;;;4957067;28;20107;-81
2022/06/11 01:38:50;;;;;;;1999.90;999.90;;;14.90;99.90;;;;;;4869070;29;20129;-81
2022/06/11 01:41:26;;;;;;;1999.90;999.90;;;14.90;99.90;;;;;;4873220;29;20025;-75
2022/06/11 01:43:59;;;;;;;1999.90;999.90;;;14.90;99.90;;;;;;4860955;29;20034;-81
2022/06/11 01:46:31;;;;;;;1999.90;999.90;;;14.80;99.90;;;;;;4871652;29;20502;-81
2022/06/11 01:49:05;;;;;;;1999.90;999.90;;;14.80;99.90;;;;;;4863576;29;20117;-76
2022/06/11 01:51:49;;;;;;;1999.90;999.90;;;14.80;99.90;;;;;;4878617;29;20073;-75
2022/06/11 01:54:30;;;;;;;1999.90;999.90;;;14.70;99.90;;;;;;4878480;29;20033;-75
2022/06/11 01:57:13;;;;;;;1999.90;999.90;;;14.70;99.90;;;;;;4879123;29;20435;-75
2022/06/11 01:59:41;;;;;;;1999.90;999.90;;;14.70;99.90;;;;;;4854860;29;20045;-81
2022/06/11 02:02:22;;;;;;;1999.90;999.90;;;14.70;99.90;;;;;;4863117;29;20108;-75
2022/06/11 02:05:06;;;;;;;1999.90;999.90;;;14.70;99.90;;;;;;4879054;29;20120;-75
2022/06/11 02:08:18;;;;;;;1999.90;999.90;;;14.70;99.90;;;;;;4879313;29;20029;-81
2022/06/11 02:11:12;;;;;;;1999.90;999.90;;;14.60;99.90;;;;;;4836895;29;20037;-75
2022/06/11 02:13:47;;;;;;;1999.90;999.90;;;14.60;99.90;;;;;;4967426;28;20030;-80
2022/06/11 02:16:35;;;;;;;1999.90;999.90;;;14.60;99.90;;;;;;4957872;28;20038;-75
2022/06/11 02:19:05;;;;;;;1999.90;999.90;;;14.60;99.90;;;;;;4965847;28;20514;-75
2022/06/11 02:21:37;;;;;;;1999.90;999.90;;;14.60;99.90;;;;;;4955989;29;20038;-75
2022/06/11 02:24:11;;;;;;;1999.90;999.90;;;14.60;99.90;;;;;;4956653;29;20023;-81
2022/06/11 02:26:44;;;;;;;1999.90;999.90;;;14.50;99.90;;;;;;4978021;28;20170;-82
2022/06/11 02:29:12;;;;;;;1999.90;999.90;;;14.50;99.90;;;;;;4957262;28;20058;-81
2022/06/11 02:31:42;;;;;;;1999.90;999.90;;;14.50;99.90;;;;;;4975551;28;20101;-78
2022/06/11 02:34:09;;;;;;;1999.90;999.90;;;14.50;99.90;;;;;;4972632;28;20027;-75
2022/06/11 02:37:15;;;;;;;1999.90;999.90;;;14.50;99.90;;;;;;4956083;29;20032;-75
2022/06/11 02:39:41;;;;;;;1999.90;999.90;;;14.50;99.90;;;;;;4954229;28;20074;-81
2022/06/11 02:42:11;;;;;;;1999.90;999.90;;;14.40;99.90;;;;;;4975397;28;20023;-75
2022/06/11 02:44:37;;;;;;;1999.90;999.90;;;14.40;99.90;;;;;;4954997;29;20031;-75
2022/06/11 02:47:03;;;;;;;1999.90;999.90;;;14.40;99.90;;;;;;4961569;28;20065;-75
2022/06/11 02:49:32;;;;;;;1999.90;999.90;;;14.40;99.90;;;;;;4925336;29;20383;-75
2022/06/11 02:52:02;;;;;;;1999.90;999.90;;;14.40;99.90;;;;;;4955356;29;20047;-80
2022/06/11 02:54:28;;;;;;;1999.90;999.90;;;14.40;99.90;;;;;;4955570;29;20149;-80
2022/06/11 02:56:56;;;;;;;1999.90;999.90;;;14.30;99.90;;;;;;4955884;29;20106;-81
2022/06/11 02:59:23;;;;;;;1999.90;999.90;;;14.30;99.90;;;;;;4953782;28;20477;-75
2022/06/11 03:01:49;;;;;;;1999.90;999.90;;;14.30;99.90;;;;;;4960219;28;20020;-75
2022/06/11 03:04:15;;;;;;;1999.90;999.90;;;14.30;99.90;;;;;;4955715;29;20495;-82
2022/06/11 03:06:42;;;;;;;1999.90;999.90;;;14.30;99.90;;;;;;4955283;29;20019;-75
2022/06/11 03:09:16;;;;;;;1999.90;999.90;;;14.30;99.90;;;;;;4954947;29;20033;-75
2022/06/11 03:11:43;;;;;;;1999.90;999.90;;;14.30;99.90;;;;;;4934199;29;20023;-81
2022/06/11 03:14:09;;;;;;;1999.90;999.90;;;14.30;99.90;;;;;;4955641;29;20126;-81
2022/06/11 03:16:37;;;;;;;1999.90;999.90;;;14.30;99.90;;;;;;4955214;29;20062;-81
2022/06/11 03:19:04;;;;;;;1999.90;999.90;;;14.30;99.90;;;;;;4959707;29;20026;-81
2022/06/11 03:21:30;;;;;;;1999.90;999.90;;;14.30;99.90;;;;;;4954792;29;20027;-81
2022/06/11 03:23:56;;;;;;;1999.90;999.90;;;14.30;99.90;;;;;;4955365;29;20020;-82
2022/06/11 03:26:22;;;;;;;1999.90;999.90;;;14.30;99.90;;;;;;4955218;29;20113;-82
2022/06/11 03:28:48;;;;;;;1999.90;999.90;;;14.30;99.90;;;;;;4964631;28;20031;-75
2022/06/11 03:31:14;;;;;;;1999.90;999.90;;;14.30;99.90;;;;;;4974212;28;20379;-75
2022/06/11 03:33:40;;;;;;;1999.90;999.90;;;14.30;99.90;;;;;;4974662;28;20029;-76
2022/06/11 03:36:09;;;;;;;1999.90;999.90;;;14.30;99.90;;;;;;4955270;28;20423;-75
2022/06/11 03:38:37;;;;;;;1999.90;999.90;;;14.30;99.90;;;;;;4955117;29;20024;-75
2022/06/11 03:41:04;;;;;;;1999.90;999.90;;;14.30;99.90;;;;;;4954941;29;20030;-81
2022/06/11 03:43:30;;;;;;;1999.90;999.90;;;14.30;99.90;;;;;;4955067;29;20019;-82
2022/06/11 03:45:56;;;;;;;1999.90;999.90;;;14.20;99.90;;;;;;4954909;29;20046;-75
2022/06/11 03:48:22;;;;;;;1999.90;999.90;;;14.20;99.90;;;;;;4961205;28;20082;-75
2022/06/11 03:50:47;;;;;;;1999.90;999.90;;;14.20;99.90;;;;;;4954106;29;20031;-80
2022/06/11 03:53:15;;;;;;;1999.90;999.90;;;14.20;99.90;;;;;;4937348;29;20075;-81
2022/06/11 03:55:43;;;;;;;1999.90;999.90;;;14.20;99.90;;;;;;4954884;29;20090;-75
2022/06/11 03:58:09;;;;;;;1999.90;999.90;;;14.20;99.90;;;;;;4955007;28;20074;-82
2022/06/11 04:03:21;;;;;;;1999.90;999.90;;;14.20;99.90;;;;;;4974238;28;20398;-75
2022/06/11 04:05:48;;;;;;;1999.90;999.90;;;14.20;99.90;;;;;;4955871;28;20035;-75
2022/06/11 04:08:15;;;;;;;1999.90;999.90;;;14.20;99.90;;;;;;4959432;28;20027;-81
2022/06/11 04:10:42;;;;;;;1999.90;999.90;;;14.20;99.90;;;;;;4953672;29;20062;-81
2022/06/11 04:13:08;;;;;;;1999.90;999.90;;;14.20;99.90;;;;;;4937105;29;20059;-75
2022/06/11 04:15:35;;;;;;;1999.90;999.90;;;14.10;99.90;;;;;;4936601;29;20035;-75
2022/06/11 04:18:02;;;;;;;1999.90;999.90;;;14.10;99.90;;;;;;4937516;29;20028;-82
2022/06/11 04:20:28;;;;;;;1999.90;999.90;;;14.10;99.90;;;;;;4954361;29;20111;-75
2022/06/11 04:22:54;;;;;;;1999.90;999.90;;;14.10;99.90;;;;;;4954507;29;20032;-82
2022/06/11 04:25:21;;;;;;;1999.90;999.90;;;14.10;99.90;;;;;;4954519;29;20040;-81
2022/06/11 04:27:53;;;;;;;1999.90;999.90;;;14.10;99.90;;;;;;4955467;28;20020;-75
2022/06/11 04:30:20;;;;;;;1999.90;999.90;;;14.10;99.90;;;;;;4973718;28;20023;-75
2022/06/11 04:32:45;;;;;;;1999.90;999.90;;;14.10;99.90;;;;;;4958970;28;20498;-75
2022/06/11 04:35:12;;;;;;;1999.90;999.90;;;14.10;99.90;;;;;;4958842;28;20043;-81
2022/06/11 04:37:38;;;;;;;1999.90;999.90;;;14.10;99.90;;;;;;4954395;29;20110;-81
2022/06/11 04:40:04;;;;;;;1999.90;999.90;;;14.20;99.90;;;;;;4957315;29;20027;-80
2022/06/11 04:42:31;;;;;;;1999.90;999.90;;;14.10;99.90;;;;;;4960489;29;20114;-81
2022/06/11 04:44:57;;;;;;;1999.90;999.90;;;14.20;99.90;;;;;;4954601;29;20411;-75
2022/06/11 04:47:26;;;;;;;1999.90;999.90;;;14.20;99.90;;;;;;4960345;28;20118;-82
2022/06/11 04:49:54;;;;;;;1999.90;999.90;;;14.20;99.90;;;;;;4954380;29;20031;-81
2022/06/11 04:52:21;;;;;;;1999.90;999.90;;;14.30;99.90;;;;;;4936042;29;20081;-75
2022/06/11 04:54:47;;;;;;;1999.90;999.90;;;14.30;99.90;;;;;;4954269;29;20040;-75
2022/06/11 04:57:13;;;;;;;1999.90;999.90;;;14.30;99.90;;;;;;4954702;29;20082;-81
2022/06/11 04:59:39;;;;;;;1999.90;999.90;;;14.30;99.90;;;;;;4957643;28;20031;-75
2022/06/11 05:02:05;;;;;;;1999.90;999.90;;;14.30;99.90;;;;;;4951922;29;20059;-81
2022/06/11 05:04:31;;;;;;;1999.90;999.90;;;14.40;99.90;;;;;;4954383;29;20042;-82
2022/06/11 05:06:59;;;;;;;1999.90;999.90;;;14.40;99.90;;;;;;4952614;29;20051;-81
2022/06/11 05:09:28;;;;;;;1999.90;999.90;;;14.40;99.90;;;;;;4955771;28;20038;-82
2022/06/11 05:11:54;;;;;;;1999.90;999.90;;;14.50;99.90;;;;;;4940584;29;20067;-75
2022/06/11 05:14:21;;;;;;;1999.90;999.90;;;14.50;99.90;;;;;;4957668;29;20106;-75
2022/06/11 05:16:48;;;;;;;1999.90;999.90;;;14.60;99.90;;;;;;4957553;29;20125;-75
2022/06/11 05:19:16;;;;;;;1999.90;999.90;;;14.60;99.90;;;;;;4957459;29;20110;-75
2022/06/11 05:21:42;;;;;;;1999.90;999.90;;;14.70;99.90;;;;;;4957210;29;20517;-76
2022/06/11 05:24:08;;;;;;;1999.90;999.90;;;14.70;99.90;;;;;;4957168;29;20499;-76
2022/06/11 05:26:49;;;;;;;1999.90;999.90;;;14.70;99.90;;;;;;4940180;29;20051;-75
2022/06/11 05:29:31;;;;;;;1999.90;999.90;;;14.80;99.90;;;;;;4969551;28;20035;-81
2022/06/11 05:31:57;;;;;;;1999.90;999.90;;;14.90;99.90;;;;;;4957375;29;20081;-81
2022/06/11 05:34:23;;;;;;;1999.90;999.90;;;15.00;99.90;;;;;;4957041;29;20532;-75
2022/06/11 05:36:48;;;;;;;1999.90;999.90;;;15.00;99.90;;;;;;4962056;28;20405;-81
2022/06/11 05:39:15;;;;;;;1999.90;999.90;;;15.00;99.90;;;;;;4944169;28;20121;-81
2022/06/11 05:41:40;;;;;;;1999.90;999.90;;;15.20;99.90;;;;;;4976857;28;20030;-76
2022/06/11 05:44:06;;;;;;;1999.90;999.90;;;15.20;99.90;;;;;;4962768;28;20038;-75
2022/06/11 05:46:34;;;;;;;1999.90;999.90;;;15.20;99.90;;;;;;4959994;28;20031;-81
2022/06/11 05:49:04;;;;;;;1999.90;999.90;;;15.30;99.90;;;;;;4959871;28;20510;-81
2022/06/11 05:51:39;;;;;;;1999.90;999.90;;;15.40;99.90;;;;;;4956695;29;20079;-81
2022/06/11 05:54:10;;;;;;;1999.90;999.90;;;15.50;99.90;;;;;;4957015;29;20035;-75
2022/06/11 05:56:37;;;;;;;1999.90;999.90;;;15.50;99.90;;;;;;4956962;29;20482;-76
2022/06/11 05:59:09;;;;;;;1999.90;999.90;;;15.60;99.90;;;;;;4967729;28;20030;-81
2022/06/11 06:01:39;;;;;;;1999.90;999.90;;;15.70;99.90;;;;;;4976098;28;20109;-76
2022/06/11 06:04:05;;;;;;;1999.90;999.90;;;15.70;99.90;;;;;;4924321;29;20514;-81
2022/06/11 06:06:31;;;;;;;1999.90;999.90;;;15.80;99.90;;;;;;4950853;29;20031;-80
2022/06/11 06:08:57;;;;;;;1999.90;999.90;;;15.90;99.90;;;;;;4956815;29;20031;-82
2022/06/11 06:11:23;;;;;;;1999.90;999.90;;;16.00;99.90;;;;;;4952369;29;20094;-76
2022/06/11 06:13:49;;;;;;;1999.90;999.90;;;16.00;99.90;;;;;;4956586;29;20455;-81
2022/06/11 06:16:26;;;;;;;1999.90;999.90;;;16.10;99.90;;;;;;4956353;29;20031;-82
2022/06/11 06:18:53;;;;;;;1999.90;999.90;;;16.20;99.90;;;;;;4939076;29;20487;-76
2022/06/11 06:21:21;;;;;;;1999.90;999.90;;;16.30;99.90;;;;;;4955376;28;20031;-76
2022/06/11 06:23:47;;;;;;;1999.90;999.90;;;16.30;99.90;;;;;;4956839;29;20023;-76
2022/06/11 06:26:13;;;;;;;1999.90;999.90;;;16.40;99.90;;;;;;4955685;29;20038;-76
2022/06/11 06:28:39;;;;;;;1999.90;999.90;;;16.50;99.90;;;;;;4956190;29;20046;-76
2022/06/11 06:31:06;;;;;;;1999.90;999.90;;;16.50;99.90;;;;;;4955861;29;20119;-76
2022/06/11 06:33:32;;;;;;;1999.90;999.90;;;16.60;99.90;;;;;;4956324;29;20031;-83
2022/06/11 06:35:59;;;;;;;1999.90;999.90;;;16.60;99.90;;;;;;4931898;29;20043;-81
2022/06/11 06:38:26;;;;;;;1999.90;999.90;;;16.80;99.90;;;;;;4937936;29;20030;-82
2022/06/11 06:40:52;;;;;;;1999.90;999.90;;;16.80;99.90;;;;;;4953539;29;20015;-77
2022/06/11 06:43:19;;;;;;;1999.90;999.90;;;16.90;99.90;;;;;;4955976;29;20030;-82
2022/06/11 06:45:45;;;;;;;1999.90;999.90;;;17.00;99.90;;;;;;4938475;29;20035;-75
2022/06/11 06:48:11;;;;;;;1999.90;999.90;;;17.10;99.90;;;;;;4961910;28;20094;-75
2022/06/11 06:50:37;;;;;;;1999.90;999.90;;;17.20;99.90;;;;;;4938379;29;20035;-81
2022/06/11 06:53:03;;;;;;;1999.90;999.90;;;17.30;99.90;;;;;;4948365;28;20548;-81
2022/06/11 06:55:29;;;;;;;1999.90;999.90;;;17.40;99.90;;;;;;4972847;28;20622;-76
2022/06/11 06:57:54;;;;;;;1999.90;999.90;;;17.60;99.90;;;;;;4964330;28;20023;-76
2022/06/11 07:00:20;;;;;;;1999.90;999.90;;;17.70;99.90;;;;;;4971890;28;20026;-82
2022/06/11 07:02:47;;;;;;;1999.90;999.90;;;17.80;99.90;;;;;;4974692;28;20427;-76
2022/06/11 07:05:14;;;;;;;1999.90;999.90;;;17.90;99.90;;;;;;4966681;28;20382;-82
2022/06/11 07:07:40;;;;;;;1999.90;999.90;;;18.00;99.90;;;;;;4957274;28;20030;-76
2022/06/11 07:10:07;;;;;;;1999.90;999.90;;;18.10;99.90;;;;;;4958607;28;20487;-81
2022/06/11 07:12:33;;;;;;;1999.90;999.90;;;18.20;99.90;;;;;;4951648;29;20035;-82
2022/06/11 07:14:59;;;;;;;1999.90;999.90;;;18.40;99.90;;;;;;4954062;29;20067;-77
2022/06/11 07:17:27;;;;;;;1999.90;999.90;;;18.50;99.90;;;;;;4938112;29;20058;-76
2022/06/11 07:20:06;;;;;;;1999.90;999.90;;;18.60;99.90;;;;;;4955337;29;20506;-76
2022/06/11 07:22:59;;;;;;;1999.90;999.90;;;18.90;99.90;;;;;;4937754;29;20027;-76
2022/06/11 07:25:25;;;;;;;1999.90;999.90;;;19.10;99.90;;;;;;4963773;28;20037;-82
2022/06/11 07:27:57;;;;;;;1999.90;999.90;;;19.20;99.90;;;;;;4972546;28;20086;-83
2022/06/11 07:30:26;;;;;;;1999.90;999.90;;;19.60;99.90;;;;;;4957012;28;20082;-82
2022/06/11 07:32:57;;;;;;;1999.90;999.90;;;21.00;99.90;;;;;;4974081;28;20046;-75
2022/06/11 07:35:23;;;;;;;1999.90;999.90;;;23.40;99.90;;;;;;4960880;28;20035;-75
2022/06/11 07:37:50;;;;;;;1999.90;999.90;;;25.10;99.90;;;;;;4954815;29;20038;-81
2022/06/11 07:40:18;;;;;;;1999.90;999.90;;;25.50;99.90;;;;;;4955077;29;20474;-81
2022/06/11 07:42:44;;;;;;;1999.90;999.90;;;26.00;99.90;;;;;;4954882;29;20067;-75
2022/06/11 07:45:10;;;;;;;1999.90;999.90;;;26.60;99.80;;;;;;4954750;29;20035;-76
2022/06/11 07:47:54;;;;;;;1999.90;999.90;;;26.70;99.20;;;;;;4960956;28;20068;-76
2022/06/11 07:50:40;;;;;;;1999.90;999.90;;;27.30;98.40;;;;;;4954940;29;20035;-81
2022/06/11 07:53:07;;;;;;;1999.90;999.90;;;27.40;98.00;;;;;;4954758;29;20071;-77
2022/06/11 07:55:34;;;;;;;1999.90;999.90;;;28.00;97.90;;;;;;4951650;29;20491;-76
2022/06/11 07:58:00;;;;;;;1999.90;999.90;;;29.00;96.60;;;;;;4949718;29;20028;-76
2022/06/11 08:00:30;;;;;;;1999.90;999.90;;;28.90;96.40;;;;;;4953203;28;20031;-76
2022/06/11 08:02:56;;;;;;;1999.90;999.90;;;28.80;96.10;;;;;;4973964;28;20389;-76
2022/06/11 08:05:22;;;;;;;1999.90;999.90;;;29.60;95.90;;;;;;4973948;28;20035;-82
2022/06/11 08:07:51;;;;;;;1999.90;999.90;;;29.80;95.50;;;;;;4973933;28;20046;-76
2022/06/11 08:10:18;;;;;;;1999.90;999.90;;;30.00;95.10;;;;;;4965072;28;20019;-76
2022/06/11 08:12:44;;;;;;;1999.90;999.90;;;30.60;94.20;;;;;;4953983;29;20028;-82
2022/06/11 08:15:11;;;;;;;1999.90;999.90;;;30.50;94.00;;;;;;4936930;29;20471;-76
2022/06/11 08:17:37;;;;;;;1999.90;999.90;;;30.90;93.90;;;;;;4954879;29;20060;-81
2022/06/11 08:20:04;;;;;;;1999.90;999.90;;;31.00;93.80;;;;;;4954865;29;20023;-76
2022/06/11 08:22:30;;;;;;;1999.90;999.90;;;31.60;93.30;;;;;;4954192;29;20041;-82
2022/06/11 08:24:56;;;;;;;1999.90;999.90;;;31.70;92.90;;;;;;4954607;29;20031;-82
2022/06/11 08:27:22;;;;;;;1999.90;999.90;;;31.70;93.60;;;;;;4954129;29;20035;-76
2022/06/11 08:29:48;;;;;;;1999.90;999.90;;;32.30;92.50;;;;;;4970649;28;20398;-82
2022/06/11 08:32:14;;;;;;;1999.90;999.90;;;32.20;92.20;;;;;;4973519;28;20031;-82
2022/06/11 08:34:42;;;;;;;1999.90;999.90;;;32.70;92.00;;;;;;4966250;28;20505;-76
2022/06/11 08:37:08;;;;;;;1999.90;999.90;;;33.10;91.60;;;;;;4954209;29;20023;-82
2022/06/11 08:39:35;;;;;;;1999.90;999.90;;;33.20;91.50;;;;;;4941264;28;20030;-82
2022/06/11 08:42:01;;;;;;;1999.90;999.90;;;32.90;91.50;;;;;;4973658;28;20019;-77
2022/06/11 08:44:31;;;;;;;1999.90;999.90;;;32.60;92.20;;;;;;4958705;28;20055;-83
2022/06/11 08:47:01;;;;;;;1999.90;999.90;;;33.10;91.60;;;;;;4947732;29;20089;-82
2022/06/11 08:50:01;;;;;;;1999.90;999.90;;;33.50;90.90;;;;;;4957808;29;20023;-83
2022/06/11 08:52:29;;;;;;;1999.90;999.90;;;33.90;91.10;;;;;;4916562;28;20039;-83
2022/06/11 08:54:57;;;;;;;1999.90;999.90;;;33.80;91.30;;;;;;4977126;28;20046;-83
2022/06/11 08:57:26;;;;;;;1999.90;999.90;;;33.80;91.20;;;;;;4977132;28;20379;-81
2022/06/11 08:59:57;;;;;;;1999.90;999.90;;;33.70;91.00;;;;;;4958696;28;20067;-83
2022/06/11 09:02:26;;;;;;;1999.90;999.90;;;33.70;91.30;;;;;;4974251;28;20023;-83
2022/06/11 09:05:13;;;;;;;1999.90;999.90;;;33.60;90.90;;;;;;4976326;28;20031;-77
2022/06/11 09:07:51;;;;;;;1999.90;999.90;;;34.00;90.90;;;;;;4947157;29;20038;-77
2022/06/11 09:10:20;;;;;;;1999.90;999.90;;;34.50;90.50;;;;;;4957492;29;20031;-83
2022/06/11 09:13:16;;;;;;;1999.90;999.90;;;34.60;90.80;;;;;;4938148;29;20039;-77
2022/06/11 09:15:46;;;;;;;1999.90;999.90;;;34.80;90.00;;;;;;4939238;29;20039;-77
2022/06/11 09:18:17;;;;;;;1999.90;999.90;;;34.70;89.40;;;;;;4959721;28;20042;-77
2022/06/11 09:21:04;;;;;;;1999.90;999.90;;;33.50;90.70;;;;;;4976360;28;20109;-77
2022/06/11 09:24:06;;;;;;;1999.90;999.90;;;34.30;90.80;;;;;;4976397;28;20019;-77
2022/06/11 09:26:43;;;;;;;1999.90;999.90;;;34.30;89.60;;;;;;4958905;28;20027;-77
2022/06/11 09:29:29;;;;;;;1999.90;999.90;;;34.70;90.00;;;;;;4974713;28;20034;-77
2022/06/11 09:32:19;;;;;;;1999.90;999.90;;;34.60;89.70;;;;;;4975724;28;20027;-77
2022/06/11 09:35:01;;;;;;;1999.90;999.90;;;34.90;90.10;;;;;;4968545;28;20082;-77
2022/06/11 09:37:57;;;;;;;1999.90;999.90;;;34.80;89.50;;;;;;4957086;29;20023;-77
2022/06/11 09:40:55;;;;;;;1999.90;999.90;;;34.80;88.50;;;;;;4951841;28;20027;-77
2022/06/11 09:43:23;;;;;;;1999.90;999.90;;;35.10;89.00;;;;;;4925367;28;20065;-77
2022/06/11 09:46:15;;;;;;;1999.90;999.90;;;35.10;88.00;;;;;;4957165;29;20492;-77
2022/06/11 09:49:08;;;;;;;1999.90;999.90;;;35.40;87.60;;;;;;4951607;29;20402;-77
2022/06/11 09:51:54;;;;;;;1999.90;999.90;;;36.00;88.90;;;;;;4956916;29;20059;-85
2022/06/11 09:54:40;;;;;;;1999.90;999.90;;;34.60;88.00;;;;;;4942429;28;20035;-77
2022/06/11 09:57:26;;;;;;;1999.90;999.90;;;34.60;90.20;;;;;;4977197;28;20585;-85
2022/06/11 09:59:59;;;;;;;1999.90;999.90;;;34.70;89.30;;;;;;4949376;29;20026;-86
2022/06/11 10:05:40;;;;;;;1999.90;999.90;;;35.60;88.90;;;;;;4896321;28;20034;-84
2022/06/11 10:08:18;;;;;;;1999.90;999.90;;;34.90;87.60;;;;;;4976158;28;20034;-77
2022/06/11 10:10:47;;;;;;;1999.90;999.90;;;35.10;87.00;;;;;;4949563;29;20064;-77
2022/06/11 10:13:44;;;;;;;1999.90;999.90;;;34.60;87.70;;;;;;4931594;29;20024;-77
2022/06/11 10:16:35;;;;;;;1999.90;999.90;;;34.90;87.50;;;;;;4917598;28;20042;-77
2022/06/11 10:19:21;;;;;;;1999.90;999.90;;;34.70;86.40;;;;;;4966693;28;20039;-77
2022/06/11 10:22:00;;;;;;;1999.90;999.90;;;34.60;86.90;;;;;;4931162;28;20046;-77
2022/06/11 10:24:28;;;;;;;1999.90;999.90;;;34.70;87.80;;;;;;4975685;28;20055;-77
2022/06/11 10:27:03;;;;;;;1999.90;999.90;;;34.90;86.10;;;;;;4975714;28;20023;-84
2022/06/11 10:29:49;;;;;;;1999.90;999.90;;;35.60;85.90;;;;;;4956923;28;20037;-77
2022/06/11 10:32:47;;;;;;;1999.90;999.90;;;35.60;87.30;;;;;;4958578;28;20026;-77
2022/06/11 10:35:28;;;;;;;1999.90;999.90;;;35.70;86.00;;;;;;4963038;28;20079;-85
2022/06/11 10:38:20;;;;;;;1999.90;999.90;;;36.10;85.40;;;;;;4955763;29;20026;-77
2022/06/11 10:40:49;;;;;;;1999.90;999.90;;;36.00;85.30;;;;;;4918471;28;20062;-86
2022/06/11 10:44:17;;;;;;;1999.90;999.90;;;35.50;85.70;;;;;;4948495;29;20467;-77
2022/06/11 10:46:43;;;;;;;1999.90;999.90;;;36.00;84.80;;;;;;4924296;29;20447;-77
2022/06/11 10:49:16;;;;;;;1999.90;999.90;;;35.90;85.80;;;;;;4916617;29;20032;-82
2022/06/11 10:51:48;;;;;;;1999.90;999.90;;;35.60;84.60;;;;;;4942568;29;20434;-77
2022/06/11 10:54:25;;;;;;;1999.90;999.90;;;35.10;84.80;;;;;;4954953;29;20226;-77
2022/06/11 10:57:37;;;;;;;1999.90;999.90;;;34.60;85.20;;;;;;4956183;29;20035;-77
2022/06/11 11:00:06;;;;;;;1999.90;999.90;;;34.90;85.00;;;;;;4959590;28;20130;-77
2022/06/11 11:02:36;;;;;;;1999.90;999.90;;;34.90;84.50;;;;;;4974970;28;20023;-77
2022/06/11 11:05:14;;;;;;;1999.90;999.90;;;34.90;84.70;;;;;;4974331;28;20069;-87
2022/06/11 11:07:44;;;;;;;1999.90;999.90;;;35.20;85.00;;;;;;4974443;28;20512;-77
2022/06/11 11:10:29;;;;;;;1999.90;999.90;;;35.40;84.00;;;;;;4966979;28;20023;-77
2022/06/11 11:13:02;;;;;;;1999.90;999.90;;;35.60;82.70;;;;;;4961928;28;20106;-77
2022/06/11 11:15:36;;;;;;;1999.90;999.90;;;35.60;82.60;;;;;;4942742;29;20024;-77
2022/06/11 11:18:19;;;;;;;1999.90;999.90;;;35.60;82.40;;;;;;4955542;29;20019;-77
2022/06/11 11:20:48;;;;;;;1999.90;999.90;;;34.40;83.30;;;;;;4955117;29;20041;-77
2022/06/11 11:23:38;;;;;;;1999.90;999.90;;;34.80;83.90;;;;;;4955252;29;20023;-77
2022/06/11 11:26:32;;;;;;;1999.90;999.90;;;35.00;84.20;;;;;;4955335;29;20110;-77
2022/06/11 11:29:08;;;;;;;1999.90;999.90;;;35.10;85.10;;;;;;4948778;28;20023;-87
2022/06/11 11:31:54;;;;;;;1999.90;999.90;;;34.80;85.80;;;;;;4973887;28;20026;-85
2022/06/11 11:34:29;;;;;;;1999.90;999.90;;;35.10;85.40;;;;;;4969351;28;20023;-77
2022/06/11 11:37:14;;;;;;;1999.90;999.90;;;35.40;86.90;;;;;;4955036;29;20554;-86
2022/06/11 11:39:53;;;;;;;1999.90;999.90;;;35.70;84.60;;;;;;4954977;29;20039;-77
2022/06/11 11:42:26;;;;;;;1999.90;999.90;;;35.30;84.60;;;;;;4937820;29;20524;-86
2022/06/11 11:44:57;;;;;;;1999.90;999.90;;;35.20;85.80;;;;;;4945246;29;20031;-77
2022/06/11 11:47:34;;;;;;;1999.90;999.90;;;35.10;86.00;;;;;;4960927;28;20019;-77
2022/06/11 11:50:36;;;;;;;1999.90;999.90;;;34.70;84.30;;;;;;4952907;29;20035;-77
2022/06/11 11:53:17;;;;;;;1999.90;999.90;;;34.50;86.10;;;;;;4945354;29;20409;-77
2022/06/11 11:56:04;;;;;;;1999.90;999.90;;;34.60;85.70;;;;;;4954933;29;20043;-86
2022/06/11 11:58:40;;;;;;;1999.90;999.90;;;34.50;85.00;;;;;;4937087;29;20027;-77
2022/06/11 12:01:09;;;;;;;1999.90;999.90;;;33.90;86.00;;;;;;4969838;28;20030;-86
2022/06/11 12:03:42;;;;;;;1999.90;999.90;;;33.40;86.70;;;;;;4974123;28;20023;-86
2022/06/11 12:06:12;;;;;;;1999.90;999.90;;;33.60;87.40;;;;;;4962819;28;20031;-77
2022/06/11 12:08:42;;;;;;;1999.90;999.90;;;33.60;86.50;;;;;;4958416;28;20018;-77
2022/06/11 12:11:25;;;;;;;1999.90;999.90;;;33.40;86.60;;;;;;4958117;28;20045;-77
2022/06/11 12:13:59;;;;;;;1999.90;999.90;;;33.80;85.40;;;;;;4955118;29;20031;-77
2022/06/11 12:16:24;;;;;;;1999.90;999.90;;;33.80;85.40;;;;;;4953949;29;20034;-77
2022/06/11 12:18:54;;;;;;;1999.90;999.90;;;33.70;86.40;;;;;;4956150;28;20023;-77
2022/06/11 12:21:24;;;;;;;1999.90;999.90;;;33.70;86.30;;;;;;4958094;29;20034;-77
2022/06/11 12:24:14;;;;;;;1999.90;999.90;;;33.70;86.40;;;;;;4958824;29;20420;-86
2022/06/11 12:26:52;;;;;;;1999.90;999.90;;;33.60;88.30;;;;;;4941333;29;20031;-77
2022/06/11 12:29:51;;;;;;;1999.90;999.90;;;33.90;87.20;;;;;;4971807;28;20023;-77
2022/06/11 12:32:23;;;;;;;1999.90;999.90;;;34.00;86.30;;;;;;4977678;28;20505;-77